createdAt,value
2019-03-30T00:01:16.926Z,98.20
2019-03-30T00:03:45.595Z,98.20
2019-03-30T00:06:14.376Z,98.10
2019-03-30T00:08:43.341Z,98.30
2019-03-30T00:11:12.236Z,98.50
2019-03-30T00:13:41.081Z,98.60
2019-03-30T00:16:09.664Z,98.80
2019-03-30T00:18:41.210Z,98.70
2019-03-30T00:21:08.516Z,98.80
2019-03-30T00:23:37.124Z,98.70
2019-03-30T00:26:08.497Z,98.70
2019-03-30T00:28:37.128Z,98.80
2019-03-30T00:31:05.877Z,98.60
2019-03-30T00:33:34.588Z,98.70
2019-03-30T00:36:03.356Z,98.60
2019-03-30T00:38:32.272Z,98.70
2019-03-30T00:41:01.068Z,98.70
2019-03-30T00:43:29.720Z,98.60
2019-03-30T00:45:58.434Z,98.70
2019-03-30T00:48:27.194Z,98.60
2019-03-30T00:50:55.854Z,98.30
2019-03-30T00:53:24.631Z,98.20
2019-03-30T00:55:53.272Z,98.10
2019-03-30T00:58:22.170Z,98.00
2019-03-30T01:00:50.858Z,98.00
2019-03-30T01:03:19.432Z,98.00
2019-03-30T01:05:48.073Z,97.70
2019-03-30T01:08:16.914Z,97.50
2019-03-30T01:10:45.669Z,97.40
2019-03-30T01:13:14.426Z,97.20
2019-03-30T01:15:43.239Z,97.10
2019-03-30T01:18:11.949Z,97.00
2019-03-30T01:20:40.591Z,97.10
2019-03-30T01:23:09.406Z,97.00
2019-03-30T01:25:38.065Z,96.80
2019-03-30T01:28:06.759Z,96.40
2019-03-30T01:30:35.449Z,96.30
2019-03-30T01:33:04.279Z,96.20
2019-03-30T01:35:33.092Z,96.30
2019-03-30T01:38:01.838Z,96.40
2019-03-30T01:40:30.520Z,96.30
2019-03-30T01:42:59.300Z,96.10
2019-03-30T01:45:28.007Z,96.10
2019-03-30T01:47:56.584Z,96.10
2019-03-30T01:50:25.397Z,96.10
2019-03-30T01:52:54.131Z,96.50
2019-03-30T01:55:22.873Z,96.10
2019-03-30T01:57:51.497Z,96.10
2019-03-30T02:00:20.267Z,96.20
2019-03-30T02:02:48.899Z,96.30
2019-03-30T02:05:17.850Z,96.10
2019-03-30T02:07:47.028Z,96.20
2019-03-30T02:10:18.744Z,96.10
2019-03-30T02:12:47.517Z,96.00
2019-03-30T02:15:17.263Z,96.00
2019-03-30T02:17:45.929Z,95.80
2019-03-30T02:20:36.945Z,95.80
2019-03-30T02:23:05.781Z,95.90
2019-03-30T02:25:34.505Z,96.00
2019-03-30T02:28:06.603Z,96.00
2019-03-30T02:30:35.278Z,96.00
2019-03-30T02:33:04.092Z,96.20
2019-03-30T02:35:32.772Z,96.20
2019-03-30T02:38:01.488Z,96.20
2019-03-30T02:40:30.416Z,96.30
2019-03-30T02:42:59.404Z,96.30
2019-03-30T02:45:28.592Z,96.40
2019-03-30T02:47:57.582Z,96.30
2019-03-30T02:50:26.285Z,96.20
2019-03-30T02:52:55.042Z,96.10
2019-03-30T02:55:23.692Z,96.00
2019-03-30T02:57:52.441Z,96.00
2019-03-30T03:00:21.221Z,96.00
2019-03-30T03:02:49.991Z,96.10
2019-03-30T03:05:18.851Z,96.20
2019-03-30T03:07:47.604Z,96.10
2019-03-30T03:10:16.752Z,96.30
2019-03-30T03:12:45.505Z,96.30
2019-03-30T03:15:14.352Z,96.20
2019-03-30T03:17:43.107Z,96.30
2019-03-30T03:20:11.892Z,96.30
2019-03-30T03:22:40.554Z,96.30
2019-03-30T03:25:09.422Z,96.30
2019-03-30T03:27:38.371Z,96.10
2019-03-30T03:30:07.569Z,96.00
2019-03-30T03:32:36.285Z,95.90
2019-03-30T03:35:05.149Z,96.00
2019-03-30T03:37:44.459Z,96.10
2019-03-30T03:40:06.502Z,96.00
2019-03-30T03:42:35.548Z,96.10
2019-03-30T03:45:06.595Z,96.00
2019-03-30T03:47:35.397Z,96.00
2019-03-30T03:50:05.066Z,96.00
2019-03-30T03:52:33.810Z,95.90
2019-03-30T03:55:02.617Z,95.90
2019-03-30T03:57:34.196Z,96.00
2019-03-30T04:00:04.391Z,96.20
2019-03-30T04:02:36.165Z,96.20
2019-03-30T04:05:06.908Z,96.10
2019-03-30T04:07:38.619Z,95.80
2019-03-30T04:10:07.434Z,95.70
2019-03-30T04:12:37.446Z,95.70
2019-03-30T04:15:09.181Z,95.80
2019-03-30T04:17:38.616Z,95.90
2019-03-30T04:20:07.454Z,95.80
2019-03-30T04:22:36.077Z,96.00
2019-03-30T04:25:06.621Z,95.70
2019-03-30T04:27:35.311Z,95.60
2019-03-30T04:30:05.616Z,95.50
2019-03-30T04:32:34.250Z,95.60
2019-03-30T04:35:03.021Z,95.60
2019-03-30T04:37:31.673Z,95.40
2019-03-30T04:40:00.516Z,95.40
2019-03-30T04:42:29.202Z,95.30
2019-03-30T04:44:57.988Z,95.10
2019-03-30T04:47:26.692Z,95.20
2019-03-30T04:49:55.307Z,95.30
2019-03-30T04:52:23.936Z,95.20
2019-03-30T04:54:52.681Z,95.30
2019-03-30T04:57:21.378Z,95.30
2019-03-30T04:59:50.124Z,95.40
2019-03-30T05:02:20.580Z,95.30
2019-03-30T05:04:49.160Z,95.40
2019-03-30T05:07:17.856Z,95.20
2019-03-30T05:09:46.531Z,95.10
2019-03-30T05:12:15.122Z,95.00
2019-03-30T05:14:43.870Z,94.90
2019-03-30T05:17:12.522Z,94.80
2019-03-30T05:19:41.648Z,94.90
2019-03-30T05:22:12.953Z,94.70
2019-03-30T05:24:41.138Z,94.50
2019-03-30T05:27:09.723Z,94.50
2019-03-30T05:29:38.381Z,94.50
2019-03-30T05:32:07.117Z,94.40
2019-03-30T05:34:35.807Z,94.50
2019-03-30T05:37:04.572Z,94.40
2019-03-30T05:39:33.472Z,94.30
2019-03-30T05:42:02.148Z,94.30
2019-03-30T05:44:30.819Z,94.00
2019-03-30T05:46:59.704Z,93.80
2019-03-30T05:49:28.306Z,93.90
2019-03-30T05:54:24.849Z,93.80
2019-03-30T05:56:53.553Z,93.70
2019-03-30T05:59:27.474Z,93.80
2019-03-30T06:01:56.551Z,93.70
2019-03-30T06:04:25.282Z,93.40
2019-03-30T06:06:53.932Z,93.40
2019-03-30T06:09:22.522Z,93.40
2019-03-30T06:11:51.324Z,93.30
2019-03-30T06:14:20.402Z,93.10
2019-03-30T06:16:49.102Z,93.00
2019-03-30T06:19:17.753Z,92.60
2019-03-30T06:21:46.409Z,92.30
2019-03-30T06:24:15.255Z,92.30
2019-03-30T06:26:43.933Z,92.30
2019-03-30T06:29:12.641Z,92.50
2019-03-30T06:31:41.452Z,92.50
2019-03-30T06:34:10.201Z,92.30
2019-03-30T06:36:39.143Z,92.20
2019-03-30T06:39:07.826Z,92.30
2019-03-30T06:41:36.445Z,91.90
2019-03-30T06:44:05.745Z,92.00
2019-03-30T06:46:34.286Z,92.10
2019-03-30T06:49:02.931Z,92.10
2019-03-30T06:51:32.579Z,92.10
2019-03-30T06:54:01.293Z,92.10
2019-03-30T06:56:29.895Z,91.90
2019-03-30T06:59:00.944Z,92.30
2019-03-30T07:01:30.365Z,91.80
2019-03-30T07:03:59.127Z,91.80
2019-03-30T07:06:29.756Z,91.30
2019-03-30T07:09:00.421Z,91.20
2019-03-30T07:11:32.165Z,91.20
2019-03-30T07:14:04.170Z,91.20
2019-03-30T07:16:35.886Z,91.00
2019-03-30T07:19:08.803Z,90.80
2019-03-30T07:21:37.867Z,90.90
2019-03-30T07:24:06.815Z,91.40
2019-03-30T07:26:35.479Z,91.10
2019-03-30T07:29:04.493Z,91.10
2019-03-30T07:31:33.194Z,91.00
2019-03-30T07:34:01.940Z,90.80
2019-03-30T07:36:31.175Z,90.80
2019-03-30T07:38:59.749Z,90.70
2019-03-30T07:41:28.765Z,90.50
2019-03-30T07:43:57.467Z,90.30
2019-03-30T07:46:26.165Z,90.00
2019-03-30T07:48:54.934Z,90.00
2019-03-30T07:51:23.651Z,89.90
2019-03-30T07:53:52.276Z,90.00
2019-03-30T07:56:20.922Z,89.60
2019-03-30T07:58:54.264Z,89.20
2019-03-30T08:01:22.958Z,88.80
2019-03-30T08:03:59.909Z,89.10
2019-03-30T08:06:30.944Z,89.00
2019-03-30T08:08:59.830Z,88.90
2019-03-30T08:11:28.442Z,88.80
2019-03-30T08:13:57.041Z,88.90
2019-03-30T08:16:25.682Z,89.50
2019-03-30T08:18:54.338Z,89.00
2019-03-30T08:21:26.385Z,88.20
2019-03-30T08:23:55.150Z,88.70
2019-03-30T08:26:24.115Z,89.00
2019-03-30T08:28:52.919Z,88.40
2019-03-30T08:31:21.858Z,88.40
2019-03-30T08:33:50.789Z,88.70
2019-03-30T08:36:19.754Z,88.30
2019-03-30T08:38:51.539Z,88.40
2019-03-30T08:41:20.264Z,88.00
2019-03-30T08:43:49.042Z,86.90
2019-03-30T08:46:22.395Z,86.20
2019-03-30T08:48:51.099Z,86.30
2019-03-30T08:51:23.172Z,86.20
2019-03-30T08:53:54.809Z,85.90
2019-03-30T08:56:22.353Z,85.50
2019-03-30T08:58:51.195Z,85.50
2019-03-30T09:01:20.707Z,85.00
2019-03-30T09:03:49.340Z,84.70
2019-03-30T09:06:23.913Z,83.70
2019-03-30T09:08:52.691Z,83.80
2019-03-30T09:11:21.264Z,83.60
2019-03-30T09:13:49.862Z,82.80
2019-03-30T09:16:18.475Z,82.40
2019-03-30T09:18:57.621Z,81.70
2019-03-30T09:21:24.288Z,81.40
2019-03-30T09:23:53.258Z,81.40
2019-03-30T09:26:22.063Z,80.30
2019-03-30T09:28:50.742Z,80.10
2019-03-30T09:31:19.419Z,79.20
2019-03-30T09:33:48.137Z,78.20
2019-03-30T09:36:16.926Z,77.40
2019-03-30T09:38:45.690Z,77.50
2019-03-30T09:41:14.334Z,75.50
2019-03-30T09:43:43.045Z,75.80
2019-03-30T09:46:11.735Z,75.30
2019-03-30T09:48:40.426Z,74.60
2019-03-30T09:51:11.050Z,74.70
2019-03-30T09:53:45.674Z,73.40
2019-03-30T09:56:17.353Z,71.70
2019-03-30T09:58:46.035Z,63.70
2019-03-30T10:01:14.983Z,59.70
2019-03-30T10:03:43.647Z,62.40
2019-03-30T10:06:12.459Z,63.00
2019-03-30T10:08:41.143Z,65.00
2019-03-30T10:11:09.841Z,68.00
2019-03-30T10:13:38.574Z,68.70
2019-03-30T10:16:07.433Z,69.60
2019-03-30T10:18:36.133Z,69.20
2019-03-30T10:21:07.759Z,70.50
2019-03-30T10:23:36.398Z,72.30
2019-03-30T10:26:05.174Z,72.00
2019-03-30T10:28:33.898Z,67.90
2019-03-30T10:31:02.494Z,65.40
2019-03-30T10:33:31.580Z,63.20
2019-03-30T10:36:00.185Z,64.20
2019-03-30T10:38:28.853Z,68.20
2019-03-30T10:40:57.608Z,65.20
2019-03-30T10:43:26.286Z,66.80
2019-03-30T10:45:55.044Z,66.60
2019-03-30T10:48:23.854Z,62.10
2019-03-30T10:50:52.559Z,56.60
2019-03-30T10:53:21.312Z,54.30
2019-03-30T10:55:50.216Z,52.70
2019-03-30T10:58:19.178Z,50.80
2019-03-30T11:00:47.911Z,48.70
2019-03-30T11:03:17.084Z,47.10
2019-03-30T11:08:51.276Z,41.90
2019-03-30T11:11:19.882Z,41.10
2019-03-30T11:13:48.675Z,43.20
2019-03-30T11:16:17.351Z,45.10
2019-03-30T11:18:46.033Z,44.90
2019-03-30T11:21:14.764Z,43.20
2019-03-30T11:23:43.584Z,44.40
2019-03-30T11:26:12.408Z,45.80
2019-03-30T11:28:41.061Z,46.10
2019-03-30T11:31:09.603Z,48.70
2019-03-30T11:33:38.258Z,48.70
2019-03-30T11:36:06.934Z,48.70
2019-03-30T11:38:35.806Z,47.00
2019-03-30T11:41:04.683Z,46.40
2019-03-30T11:43:33.386Z,45.40
2019-03-30T11:46:02.214Z,49.30
2019-03-30T11:48:30.916Z,52.20
2019-03-30T11:50:59.546Z,53.20
2019-03-30T11:53:28.237Z,52.60
2019-03-30T11:55:57.156Z,52.10
2019-03-30T11:58:25.945Z,51.10
2019-03-30T12:00:54.693Z,50.10
2019-03-30T12:03:23.304Z,50.90
2019-03-30T12:05:52.120Z,53.50
2019-03-30T12:08:20.738Z,52.70
2019-03-30T12:10:49.408Z,52.70
2019-03-30T12:13:18.054Z,56.00
2019-03-30T12:15:46.701Z,58.90
2019-03-30T12:18:15.513Z,58.90
2019-03-30T12:20:44.181Z,58.20
2019-03-30T12:23:12.967Z,58.70
2019-03-30T12:25:41.802Z,58.20
2019-03-30T12:28:10.569Z,58.30
2019-03-30T12:30:39.230Z,57.00
2019-03-30T12:33:08.007Z,56.70
2019-03-30T12:35:36.797Z,56.90
2019-03-30T12:38:07.017Z,56.10
2019-03-30T12:40:38.534Z,56.30
2019-03-30T12:43:07.320Z,56.70
2019-03-30T12:45:36.059Z,56.70
2019-03-30T12:48:04.834Z,56.20
2019-03-30T12:50:33.588Z,56.90
2019-03-30T12:53:02.283Z,56.90
2019-03-30T12:55:31.157Z,55.70
2019-03-30T12:57:59.867Z,55.50
2019-03-30T13:00:28.620Z,55.90
2019-03-30T13:02:57.340Z,56.10
2019-03-30T13:05:26.312Z,56.70
2019-03-30T13:07:55.389Z,58.90
2019-03-30T13:10:24.383Z,59.60
2019-03-30T13:12:53.265Z,60.50
2019-03-30T13:15:23.620Z,59.50
2019-03-30T13:17:52.364Z,59.40
2019-03-30T13:20:21.048Z,58.60
2019-03-30T13:22:49.661Z,60.30
2019-03-30T13:25:18.384Z,62.60
2019-03-30T13:27:48.637Z,64.10
2019-03-30T13:30:19.184Z,64.40
2019-03-30T13:32:47.942Z,64.20
2019-03-30T13:35:16.810Z,64.10
2019-03-30T13:37:45.543Z,64.10
2019-03-30T13:40:14.591Z,63.80
2019-03-30T13:42:43.429Z,63.50
2019-03-30T13:45:12.341Z,62.90
2019-03-30T13:47:41.269Z,61.90
2019-03-30T13:50:12.152Z,61.20
2019-03-30T13:52:40.869Z,60.50
2019-03-30T13:55:09.773Z,60.50
2019-03-30T13:57:39.354Z,60.00
2019-03-30T14:00:09.066Z,59.70
2019-03-30T14:02:38.002Z,60.80
2019-03-30T14:05:07.188Z,61.40
2019-03-30T14:07:36.377Z,60.40
2019-03-30T14:10:07.529Z,60.70
2019-03-30T14:12:36.291Z,60.50
2019-03-30T14:15:09.214Z,62.10
2019-03-30T14:17:36.715Z,63.70
2019-03-30T14:20:07.462Z,64.30
2019-03-30T14:22:36.769Z,65.20
2019-03-30T14:25:06.883Z,65.70
2019-03-30T14:27:35.782Z,66.60
2019-03-30T14:30:09.890Z,65.80
2019-03-30T14:32:38.747Z,65.50
2019-03-30T14:35:07.849Z,66.50
2019-03-30T14:37:36.629Z,67.10
2019-03-30T14:40:07.919Z,68.70
2019-03-30T14:42:36.556Z,68.90
2019-03-30T14:45:07.941Z,69.20
2019-03-30T14:47:36.943Z,69.10
2019-03-30T14:50:09.639Z,68.90
2019-03-30T14:52:38.349Z,68.20
2019-03-30T14:55:08.905Z,68.20
2019-03-30T14:57:37.984Z,67.50
2019-03-30T15:00:09.683Z,68.40
2019-03-30T15:02:38.532Z,68.20
2019-03-30T15:05:10.241Z,67.90
2019-03-30T15:07:39.055Z,68.70
2019-03-30T15:10:10.087Z,68.60
2019-03-30T15:12:39.140Z,69.20
2019-03-30T15:15:09.526Z,69.80
2019-03-30T15:17:40.638Z,70.60
2019-03-30T15:20:13.687Z,70.90
2019-03-30T15:22:42.493Z,71.20
2019-03-30T15:25:14.130Z,71.60
2019-03-30T15:27:42.817Z,72.70
2019-03-30T15:30:11.862Z,73.10
2019-03-30T15:32:40.665Z,73.00
2019-03-30T15:35:09.681Z,72.80
2019-03-30T15:37:38.597Z,72.60
2019-03-30T15:40:07.908Z,73.00
2019-03-30T15:42:39.895Z,73.10
2019-03-30T15:45:09.283Z,73.70
2019-03-30T15:47:38.139Z,74.30
2019-03-30T15:50:08.324Z,74.70
2019-03-30T15:52:37.272Z,74.70
2019-03-30T15:55:07.413Z,74.90
2019-03-30T15:57:37.056Z,75.30
2019-03-30T16:00:10.532Z,75.40
2019-03-30T16:02:39.288Z,75.10
2019-03-30T16:05:08.559Z,75.20
2019-03-30T16:07:37.378Z,75.70
2019-03-30T16:10:09.314Z,76.30
2019-03-30T16:12:38.153Z,76.80
2019-03-30T16:15:07.026Z,77.00
2019-03-30T16:17:35.640Z,77.80
2019-03-30T16:20:08.611Z,77.00
2019-03-30T16:22:37.537Z,77.40
2019-03-30T16:25:09.445Z,77.40
2019-03-30T16:27:39.431Z,77.60
2019-03-30T16:30:09.959Z,77.50
2019-03-30T16:32:38.690Z,77.80
2019-03-30T16:35:08.259Z,78.10
2019-03-30T16:37:37.144Z,78.50
2019-03-30T16:40:07.479Z,78.90
2019-03-30T16:42:36.477Z,79.20
2019-03-30T16:45:07.407Z,79.60
2019-03-30T16:47:36.370Z,80.10
2019-03-30T16:50:07.542Z,80.40
2019-03-30T16:52:36.275Z,80.80
2019-03-30T16:55:05.816Z,81.30
2019-03-30T16:57:43.231Z,81.70
2019-03-30T17:00:07.162Z,82.10
2019-03-30T17:02:36.216Z,82.60
2019-03-30T17:05:09.337Z,83.00
2019-03-30T17:07:38.049Z,83.50
2019-03-30T17:10:08.855Z,83.50
2019-03-30T17:12:38.287Z,83.00
2019-03-30T17:15:08.016Z,82.90
2019-03-30T17:17:38.339Z,83.10
2019-03-30T17:20:12.006Z,83.10
2019-03-30T17:22:40.726Z,83.60
2019-03-30T17:25:10.069Z,84.90
2019-03-30T17:27:38.948Z,85.00
2019-03-30T17:30:08.659Z,84.20
2019-03-30T17:32:38.529Z,84.40
2019-03-30T17:35:08.254Z,84.60
2019-03-30T17:37:37.468Z,84.80
2019-03-30T17:40:12.330Z,85.10
2019-03-30T17:42:41.409Z,85.50
2019-03-30T17:45:10.831Z,86.10
2019-03-30T17:47:39.607Z,86.00
2019-03-30T17:50:09.419Z,86.20
2019-03-30T17:52:40.035Z,87.60
2019-03-30T17:55:08.991Z,87.30
2019-03-30T17:57:37.726Z,87.50
2019-03-30T18:00:16.066Z,87.90
2019-03-30T18:02:45.106Z,88.30
2019-03-30T18:05:13.888Z,88.80
2019-03-30T18:07:42.680Z,89.00
2019-03-30T18:10:13.287Z,89.00
2019-03-30T18:12:42.369Z,89.20
2019-03-30T18:15:12.347Z,89.90
2019-03-30T18:17:41.317Z,90.00
2019-03-30T18:20:11.435Z,90.00
2019-03-30T18:22:40.294Z,90.10
2019-03-30T18:25:09.243Z,90.10
2019-03-30T18:27:37.867Z,90.30
2019-03-30T18:30:07.743Z,90.80
2019-03-30T18:32:36.650Z,90.50
2019-03-30T18:35:06.867Z,90.70
2019-03-30T18:37:36.442Z,90.80
2019-03-30T18:40:07.560Z,90.80
2019-03-30T18:42:36.322Z,91.20
2019-03-30T18:45:07.462Z,91.10
2019-03-30T18:47:36.143Z,91.30
2019-03-30T18:50:07.222Z,91.50
2019-03-30T18:52:39.287Z,91.40
2019-03-30T18:55:10.334Z,91.70
2019-03-30T18:57:39.137Z,91.80
2019-03-30T19:00:08.309Z,92.00
2019-03-30T19:02:37.167Z,92.10
2019-03-30T19:05:06.603Z,92.10
2019-03-30T19:07:35.403Z,92.10
2019-03-30T19:10:06.943Z,92.10
2019-03-30T19:12:35.819Z,92.20
2019-03-30T19:15:06.941Z,92.20
2019-03-30T19:17:36.206Z,92.30
2019-03-30T19:20:10.100Z,92.40
2019-03-30T19:22:38.841Z,92.40
2019-03-30T19:25:08.176Z,92.40
2019-03-30T19:27:37.102Z,92.40
2019-03-30T19:30:08.196Z,92.50
2019-03-30T19:32:36.898Z,92.60
2019-03-30T19:35:09.234Z,92.70
2019-03-30T19:37:38.160Z,92.70
2019-03-30T19:40:07.356Z,92.60
2019-03-30T19:42:38.676Z,92.50
2019-03-30T19:45:09.807Z,92.60
2019-03-30T19:47:38.796Z,92.60
2019-03-30T19:50:08.574Z,92.50
2019-03-30T19:52:40.046Z,92.50
2019-03-30T19:55:07.780Z,92.50
2019-03-30T19:57:36.738Z,92.50
2019-03-30T20:00:08.714Z,92.70
2019-03-30T20:02:37.681Z,92.60
2019-03-30T20:05:07.813Z,92.60
2019-03-30T20:07:37.028Z,92.70
2019-03-30T20:10:07.136Z,92.70
2019-03-30T20:12:35.932Z,92.70
2019-03-30T20:15:07.198Z,92.70
2019-03-30T20:17:36.038Z,92.80
2019-03-30T20:20:08.066Z,92.80
2019-03-30T20:22:37.024Z,92.90
2019-03-30T20:25:08.375Z,93.00
2019-03-30T20:27:37.232Z,93.00
2019-03-30T20:30:09.101Z,93.00
2019-03-30T20:32:38.142Z,93.00
2019-03-30T20:35:08.433Z,93.00
2019-03-30T20:37:37.166Z,92.90
2019-03-30T20:40:09.373Z,92.80
2019-03-30T20:42:38.125Z,92.90
2019-03-30T20:45:07.897Z,93.00
2019-03-30T20:47:36.944Z,93.00
2019-03-30T20:50:07.967Z,93.00
2019-03-30T20:52:36.919Z,93.00
2019-03-30T20:55:06.894Z,93.00
2019-03-30T20:57:35.686Z,93.00
2019-03-30T21:00:07.055Z,93.00
2019-03-30T21:02:35.851Z,93.10
2019-03-30T21:05:06.114Z,93.10
2019-03-30T21:07:34.785Z,93.30
2019-03-30T21:10:10.266Z,93.30
2019-03-30T21:12:37.806Z,93.50
2019-03-30T21:15:08.267Z,93.70
2019-03-30T21:17:37.109Z,93.90
2019-03-30T21:20:06.662Z,93.90
2019-03-30T21:22:36.906Z,94.00
2019-03-30T21:25:06.432Z,94.00
2019-03-30T21:27:35.230Z,94.10
2019-03-30T21:30:08.801Z,94.20
2019-03-30T21:32:37.456Z,94.20
2019-03-30T21:35:08.379Z,94.40
2019-03-30T21:37:38.771Z,94.40
2019-03-30T21:40:07.692Z,94.80
2019-03-30T21:42:36.533Z,94.50
2019-03-30T21:45:07.398Z,94.50
2019-03-30T21:47:37.668Z,94.50
2019-03-30T21:50:07.648Z,94.70
2019-03-30T21:52:39.080Z,94.40
2019-03-30T21:55:08.210Z,94.50
2019-03-30T21:57:36.952Z,94.50
2019-03-30T22:00:10.992Z,94.50
2019-03-30T22:02:38.752Z,94.50
2019-03-30T22:05:07.805Z,94.60
2019-03-30T22:07:37.018Z,94.80
2019-03-30T22:10:08.410Z,94.80
2019-03-30T22:12:39.589Z,94.80
2019-03-30T22:15:08.906Z,94.80
2019-03-30T22:17:37.594Z,94.80
2019-03-30T22:20:07.838Z,94.90
2019-03-30T22:22:36.565Z,94.90
2019-03-30T22:25:06.171Z,95.00
2019-03-30T22:27:37.846Z,95.40
2019-03-30T22:30:08.262Z,94.90
2019-03-30T22:32:37.042Z,94.90
2019-03-30T22:35:07.982Z,94.90
2019-03-30T22:37:36.818Z,94.80
2019-03-30T22:40:06.996Z,94.80
2019-03-30T22:42:35.717Z,94.90
2019-03-30T22:45:06.016Z,94.90
2019-03-30T22:47:34.696Z,94.90
2019-03-30T22:50:05.155Z,95.00
2019-03-30T22:52:35.333Z,95.00
2019-03-30T22:55:05.645Z,95.00
2019-03-30T22:57:34.250Z,95.20
2019-03-30T23:00:03.588Z,95.10
2019-03-30T23:02:32.269Z,95.20
2019-03-30T23:05:00.987Z,95.30
2019-03-30T23:07:29.613Z,95.30
2019-03-30T23:09:58.273Z,95.30
2019-03-30T23:12:29.822Z,95.40
2019-03-30T23:14:58.554Z,95.50
2019-03-30T23:17:28.788Z,95.60
2019-03-30T23:19:57.535Z,95.60
2019-03-30T23:22:26.160Z,95.80
2019-03-30T23:24:56.132Z,96.00
2019-03-30T23:27:24.711Z,96.10
2019-03-30T23:29:53.367Z,96.20
2019-03-30T23:32:22.240Z,96.40
2019-03-30T23:34:50.833Z,96.70
2019-03-30T23:37:19.532Z,96.40
2019-03-30T23:39:48.224Z,96.40
2019-03-30T23:42:17.012Z,96.30
2019-03-30T23:44:45.677Z,96.20
2019-03-30T23:47:14.539Z,96.00
2019-03-30T23:49:43.254Z,96.00
2019-03-30T23:52:11.933Z,96.10
2019-03-30T23:54:40.854Z,96.00
2019-03-30T23:57:09.684Z,96.20
2019-03-30T23:59:38.327Z,96.30
